Weather History for Crestview, FL

Change the Weather History Date:

Wednesday, January 2, 2013

  Actual Average Record
Temperature  
Mean Temperature 58 °F -  
Max Temperature 68 °F - - ()
Min Temperature 47 °F - - ()
Degree Days  
Heating Degree Days 7    
Growing Degree Days 8 (Base 50)    
Moisture  
Dew Point 53 °F    
Average Humidity 88    
Maximum Humidity 100    
Minimum Humidity 55    
Precipitation  
Precipitation 0.01 in - - ()
Sea Level Pressure  
Sea Level Pressure 30.04 in    
Wind  
Wind Speed 11 mph (NNW)    
Max Wind Speed 15 mph    
Max Gust Speed -    
Visibility 10 miles    
Events Rain    
T = Trace of Precipitation, MM = Missing Value Source: NWS Daily Summary

Daily Weather History Graph

Daily Weather History Graph

Search for Another Location

Airport:

Trip Planner

Search our weather history database for the weather conditions in past years. The results will help you decide how hot, cold, wet, or windy it might be!

Date:

Astronomy

Jan. 02, 2013 Rise Set
Actual Time 6:43 AM CST 4:56 PM CST
Civil Twilight 6:17 AM CST 5:23 PM CST
Nautical Twilight 5:47 AM CST 5:53 PM CST
Astronomical Twilight 5:18 AM CST 6:22 PM CST
Moon 10:04 PM CST (1/2) 9:47 AM CST (1/2)
Length of Visible Light 11h 06m
Length of Day
10h 13m
Waning Gibbous, 75% of the Moon is Illuminated
Jan 2
Waning Gibbous
Jan 4
Last Quarter
Jan 11
New
Jan 18
First Quarter
Jan 26
Full

Hourly Weather History & Observations

Time (CST) Temp. Dew Point Humidity Pressure Visibility Wind Dir Wind Speed Gust Speed Precip Events Conditions
12:02 AM 68.0 °F 68.0 °F 100% 29.96 in 9.0 mi SW 11.5 mph - N/A   Light Drizzle
12:18 AM 68.0 °F 68.0 °F 100% 29.96 in 7.0 mi WSW 11.5 mph - N/A Rain Light Rain
12:22 AM 68.0 °F 68.0 °F 100% 29.96 in 9.0 mi West 10.4 mph - N/A   Mostly Cloudy
12:36 AM 66.2 °F 64.4 °F 94% 29.97 in 10.0 mi NW 13.8 mph - N/A   Overcast
12:39 AM 64.4 °F 62.6 °F 94% 29.97 in 10.0 mi NW 13.8 mph - N/A   Overcast
12:41 AM 64.4 °F 62.6 °F 94% 29.97 in 9.0 mi NNW 13.8 mph - N/A   Overcast
12:55 AM 62.4 °F 61.2 °F 96% 29.98 in 7.0 mi NNW 12.7 mph - 0.01 in   Overcast
1:05 AM 60.8 °F 60.8 °F 100% 29.98 in 8.0 mi NNW 12.7 mph - N/A   Overcast
1:10 AM 60.8 °F 60.8 °F 100% 29.98 in 9.0 mi NNW 9.2 mph - N/A   Overcast
1:33 AM 59.0 °F 59.0 °F 100% 29.99 in 10.0 mi North 9.2 mph - N/A   Overcast
1:45 AM 59.0 °F 59.0 °F 100% 29.99 in 10.0 mi NNW 12.7 mph - N/A   Overcast
1:55 AM 58.5 °F 57.6 °F 97% 29.99 in 10.0 mi NNW 9.2 mph - N/A   Overcast
2:01 AM 59.0 °F 57.2 °F 94% 29.99 in 10.0 mi NNW 9.2 mph - N/A   Overcast
2:10 AM 57.2 °F 57.2 °F 100% 29.99 in 10.0 mi North 9.2 mph - N/A   Overcast
2:11 AM 57.2 °F 57.2 °F 100% 29.99 in 10.0 mi North 9.2 mph - N/A   Overcast
2:19 AM 57.2 °F 55.4 °F 94% 30.00 in 10.0 mi NNW 15.0 mph - N/A   Overcast
2:44 AM 57.2 °F 55.4 °F 94% 30.00 in 10.0 mi North 9.2 mph - N/A   Overcast
2:55 AM 57.0 °F 54.9 °F 92% 30.00 in 10.0 mi North 11.5 mph - N/A   Overcast
3:01 AM 57.2 °F 55.4 °F 94% 30.00 in 10.0 mi North 10.4 mph - N/A   Overcast
3:03 AM 57.2 °F 55.4 °F 94% 30.00 in 10.0 mi North 10.4 mph - N/A   Overcast
3:55 AM 55.9 °F 53.1 °F 90% 30.01 in 10.0 mi North 10.4 mph - N/A   Overcast
4:40 AM 55.4 °F 53.6 °F 94% 30.01 in 10.0 mi North 11.5 mph - N/A   Overcast
4:46 AM 55.4 °F 53.6 °F 94% 30.01 in 10.0 mi North 11.5 mph - N/A   Overcast
4:55 AM 55.0 °F 52.9 °F 92% 30.02 in 10.0 mi North 9.2 mph - N/A   Overcast
5:04 AM 55.4 °F 53.6 °F 94% 30.02 in 10.0 mi North 10.4 mph - N/A   Overcast
5:05 AM 55.4 °F 53.6 °F 94% 30.02 in 10.0 mi North 10.4 mph - N/A   Overcast
5:29 AM 53.6 °F 51.8 °F 94% 30.03 in 10.0 mi North 12.7 mph - N/A   Overcast
5:35 AM 53.6 °F 51.8 °F 94% 30.04 in 10.0 mi North 13.8 mph - N/A   Overcast
5:52 AM 53.6 °F 51.8 °F 94% 30.03 in 9.0 mi North 12.7 mph - N/A   Overcast
5:55 AM 53.4 °F 52.0 °F 95% 30.03 in 9.0 mi North 11.5 mph - N/A   Overcast
6:29 AM 53.6 °F 50.0 °F 88% 30.05 in 10.0 mi North 10.4 mph - N/A   Overcast
6:40 AM 51.8 °F 50.0 °F 94% 30.06 in 10.0 mi North 11.5 mph - N/A   Overcast
6:43 AM 51.8 °F 50.0 °F 94% 30.06 in 10.0 mi North 11.5 mph - N/A   Overcast
6:50 AM 51.8 °F 50.0 °F 94% 30.06 in 10.0 mi North 10.4 mph - N/A   Mostly Cloudy
6:55 AM 52.5 °F 50.0 °F 91% 30.06 in 10.0 mi North 9.2 mph - N/A   Mostly Cloudy
6:56 AM 51.8 °F 50.0 °F 94% 30.06 in 10.0 mi North 10.4 mph - N/A   Mostly Cloudy
7:01 AM 51.8 °F 50.0 °F 94% 30.06 in 10.0 mi North 11.5 mph - N/A   Mostly Cloudy
7:05 AM 51.8 °F 50.0 °F 94% 30.06 in 10.0 mi North 6.9 mph - N/A   Mostly Cloudy
7:55 AM 52.9 °F 49.5 °F 88% 30.09 in 10.0 mi North 11.5 mph - N/A   Overcast
8:55 AM 54.0 °F 49.3 °F 84% 30.11 in 10.0 mi North 12.7 mph - N/A   Overcast
9:35 AM 55.4 °F 48.2 °F 77% 30.10 in 10.0 mi North 9.2 mph - N/A   Mostly Cloudy
9:55 AM 56.5 °F 48.9 °F 76% 30.12 in 10.0 mi North 10.4 mph - N/A   Overcast
10:55 AM 58.8 °F 48.7 °F 69% 30.11 in 10.0 mi NNE 9.2 mph - N/A   Mostly Cloudy
11:55 AM 61.0 °F 48.2 °F 63% 30.07 in 10.0 mi North 12.7 mph - N/A   Mostly Cloudy
12:55 PM 62.2 °F 46.6 °F 57% 30.05 in 10.0 mi North 10.4 mph - N/A   Mostly Cloudy
1:55 PM 62.6 °F 46.4 °F 55% 30.04 in 10.0 mi North 11.5 mph - N/A   Mostly Cloudy
2:55 PM 59.0 °F 46.4 °F 63% 30.06 in 10.0 mi North 10.4 mph - N/A   Overcast
3:55 PM 57.9 °F 46.6 °F 66% 30.07 in 10.0 mi NNW 8.1 mph - N/A   Overcast
4:55 PM 56.7 °F 47.1 °F 70% 30.10 in 10.0 mi NW 6.9 mph - N/A   Overcast
5:55 PM 54.5 °F 46.0 °F 73% 30.13 in 10.0 mi NNW 13.8 mph - N/A   Overcast
6:55 PM 52.2 °F 44.1 °F 74% 30.14 in 10.0 mi North 9.2 mph - N/A   Overcast
7:55 PM 50.9 °F 43.7 °F 76% 30.14 in 10.0 mi North 11.5 mph - N/A   Overcast
8:55 PM 49.8 °F 43.3 °F 78% 30.15 in 10.0 mi North 11.5 mph - N/A   Overcast
9:55 PM 49.1 °F 42.8 °F 79% 30.17 in 10.0 mi NNW 11.5 mph - N/A   Overcast
10:55 PM 48.0 °F 41.5 °F 78% 30.18 in 10.0 mi North 12.7 mph - N/A   Overcast
11:55 PM 47.7 °F 41.2 °F 78% 30.16 in 10.0 mi NNW 9.2 mph - N/A   Overcast